createdAt,value
2022-11-24T00:01:12.219Z,28.70
2022-11-24T00:03:45.118Z,27.40
2022-11-24T00:06:18.726Z,28.00
2022-11-24T00:08:51.827Z,28.30
2022-11-24T00:11:27.425Z,27.60
2022-11-24T00:14:00.227Z,31.40
2022-11-24T00:16:34.158Z,27.60
2022-11-24T00:19:09.347Z,27.40
2022-11-24T00:21:41.711Z,29.40
2022-11-24T00:24:14.773Z,28.60
2022-11-24T00:26:47.286Z,27.00
2022-11-24T00:29:19.907Z,31.00
2022-11-24T00:31:52.647Z,30.10
2022-11-24T00:34:25.830Z,27.40
2022-11-24T00:37:00.812Z,29.30
2022-11-24T00:39:34.533Z,30.30
2022-11-24T00:42:07.413Z,30.30
2022-11-24T00:44:40.633Z,29.80
2022-11-24T00:47:13.600Z,26.30
2022-11-24T00:49:46.577Z,28.00
2022-11-24T00:52:18.919Z,27.70
2022-11-24T00:54:51.816Z,27.90
2022-11-24T00:57:25.198Z,29.10
2022-11-24T00:59:57.854Z,20.80
2022-11-24T01:02:30.756Z,21.00
2022-11-24T01:05:03.703Z,19.00
2022-11-24T01:07:37.017Z,19.50
2022-11-24T01:10:11.381Z,19.20
2022-11-24T01:12:44.333Z,17.80
2022-11-24T01:15:16.855Z,19.50
2022-11-24T01:17:49.843Z,19.30
2022-11-24T01:20:23.705Z,24.90
2022-11-24T01:22:56.044Z,18.90
2022-11-24T01:25:28.410Z,21.20
2022-11-24T01:28:01.324Z,22.30
2022-11-24T01:30:33.844Z,19.60
2022-11-24T01:33:06.397Z,22.00
2022-11-24T01:35:39.562Z,24.10
2022-11-24T01:38:12.028Z,23.20
2022-11-24T01:40:45.370Z,21.90
2022-11-24T01:43:23.608Z,18.90
2022-11-24T01:45:57.426Z,23.80
2022-11-24T01:48:34.076Z,21.70
2022-11-24T01:51:13.270Z,19.90
2022-11-24T01:53:50.551Z,23.40
2022-11-24T01:56:24.045Z,16.50
2022-11-24T01:59:01.967Z,24.60
2022-11-24T02:01:35.549Z,22.50
2022-11-24T02:04:11.863Z,21.80
2022-11-24T02:06:47.842Z,22.90
2022-11-24T02:09:27.837Z,22.20
2022-11-24T02:12:03.273Z,19.20
2022-11-24T02:14:39.602Z,17.00
2022-11-24T02:17:11.974Z,18.00
2022-11-24T02:19:53.911Z,21.20
2022-11-24T02:22:35.477Z,19.30
2022-11-24T02:25:18.245Z,22.20
2022-11-24T02:27:53.851Z,21.10
2022-11-24T02:30:26.954Z,19.80
2022-11-24T02:33:00.426Z,17.10
2022-11-24T02:35:34.299Z,19.30
2022-11-24T02:38:06.711Z,19.20
2022-11-24T02:40:39.489Z,20.50
2022-11-24T02:43:15.358Z,19.50
2022-11-24T02:45:47.972Z,18.90
2022-11-24T02:48:20.781Z,17.30
2022-11-24T02:50:53.248Z,18.80
2022-11-24T02:53:27.212Z,20.60
2022-11-24T02:56:01.188Z,19.10
2022-11-24T02:58:33.658Z,18.70
2022-11-24T03:01:07.798Z,21.00
2022-11-24T03:03:41.840Z,19.70
2022-11-24T03:06:14.463Z,20.90
2022-11-24T03:08:46.955Z,22.40
2022-11-24T03:11:19.628Z,21.60
2022-11-24T03:13:52.820Z,19.10
2022-11-24T03:16:25.609Z,21.60
2022-11-24T03:18:58.122Z,21.70
2022-11-24T03:21:30.566Z,19.40
2022-11-24T03:24:03.037Z,19.50
2022-11-24T03:26:37.091Z,22.70
2022-11-24T03:29:09.642Z,23.00
2022-11-24T03:31:42.094Z,22.00
2022-11-24T03:34:15.591Z,23.90
2022-11-24T03:36:47.960Z,22.20
2022-11-24T03:39:20.527Z,24.40
2022-11-24T03:41:53.668Z,21.70
2022-11-24T03:44:26.096Z,22.80
2022-11-24T03:46:58.676Z,20.70
2022-11-24T03:49:31.067Z,25.00
2022-11-24T03:52:07.772Z,24.80
2022-11-24T03:54:40.618Z,25.20
2022-11-24T03:57:13.327Z,25.00
2022-11-24T03:59:45.919Z,23.40
2022-11-24T04:02:18.342Z,25.10
2022-11-24T04:04:52.690Z,27.10
2022-11-24T04:07:25.220Z,24.00
2022-11-24T04:09:57.684Z,25.30
2022-11-24T04:12:45.145Z,23.20
2022-11-24T04:15:19.818Z,26.50
2022-11-24T04:17:52.823Z,29.20
2022-11-24T04:20:25.715Z,29.10
2022-11-24T04:22:58.184Z,26.70
2022-11-24T04:25:30.526Z,27.40
2022-11-24T04:28:03.439Z,27.90
2022-11-24T04:30:36.278Z,29.30
2022-11-24T04:33:08.942Z,29.10
2022-11-24T04:35:41.488Z,29.20
2022-11-24T04:38:13.799Z,28.20
2022-11-24T04:41:06.517Z,28.90
2022-11-24T04:43:40.865Z,30.20
2022-11-24T04:46:14.059Z,30.60
2022-11-24T04:48:46.518Z,31.30
2022-11-24T04:51:18.883Z,31.50
2022-11-24T04:53:52.664Z,31.60
2022-11-24T04:56:25.149Z,34.70
2022-11-24T04:58:57.468Z,29.20
2022-11-24T05:01:30.010Z,31.30
2022-11-24T05:04:03.158Z,31.10
2022-11-24T05:06:35.645Z,33.40
2022-11-24T05:09:09.202Z,29.30
2022-11-24T05:11:42.089Z,32.60
2022-11-24T05:14:14.431Z,33.80
2022-11-24T05:16:47.207Z,33.10
2022-11-24T05:19:20.110Z,34.00
2022-11-24T05:21:54.404Z,33.30
2022-11-24T05:24:27.172Z,30.30
2022-11-24T05:27:00.351Z,33.10
2022-11-24T05:29:33.290Z,29.10
2022-11-24T05:32:07.206Z,32.10
2022-11-24T05:34:39.722Z,31.30
2022-11-24T05:37:12.597Z,32.40
2022-11-24T05:39:44.927Z,31.90
2022-11-24T05:42:34.719Z,30.40
2022-11-24T05:45:09.901Z,29.90
2022-11-24T05:47:43.203Z,34.00
2022-11-24T05:50:17.277Z,32.00
2022-11-24T05:52:50.198Z,31.00
2022-11-24T05:55:23.179Z,33.30
2022-11-24T05:58:02.204Z,31.30
2022-11-24T06:00:35.786Z,31.10
2022-11-24T06:03:09.243Z,34.90
2022-11-24T06:05:41.993Z,34.90
2022-11-24T06:08:14.879Z,33.70
2022-11-24T06:10:48.164Z,31.60
2022-11-24T06:13:20.710Z,33.50
2022-11-24T06:15:53.646Z,31.40
2022-11-24T06:18:28.517Z,32.10
2022-11-24T06:21:10.949Z,36.50
2022-11-24T06:23:44.283Z,32.10
2022-11-24T06:26:18.042Z,33.70
2022-11-24T06:28:50.894Z,34.30
2022-11-24T06:31:23.748Z,27.30
2022-11-24T06:33:57.743Z,28.20
2022-11-24T06:36:31.062Z,28.40
2022-11-24T06:39:06.180Z,26.40
2022-11-24T06:41:39.637Z,26.90
2022-11-24T06:44:15.286Z,22.50
2022-11-24T06:46:52.707Z,24.70
2022-11-24T06:49:26.851Z,26.20
2022-11-24T06:52:02.403Z,23.90
2022-11-24T06:54:37.578Z,20.40
2022-11-24T06:57:14.418Z,20.90
2022-11-24T06:59:47.818Z,25.30
2022-11-24T07:02:20.283Z,24.70
2022-11-24T07:04:52.774Z,15.30
2022-11-24T07:07:25.797Z,19.60
2022-11-24T07:09:58.274Z,18.70
2022-11-24T07:12:35.285Z,17.00
2022-11-24T07:15:11.290Z,19.40
2022-11-24T07:17:45.540Z,18.20
2022-11-24T07:20:18.670Z,18.70
2022-11-24T07:22:51.730Z,20.70
2022-11-24T07:25:24.201Z,20.10
2022-11-24T07:28:01.482Z,20.10
2022-11-24T07:30:35.295Z,19.80
2022-11-24T07:33:07.671Z,19.10
2022-11-24T07:35:40.122Z,17.30
2022-11-24T07:38:12.491Z,18.00
2022-11-24T07:40:44.909Z,17.00
2022-11-24T07:43:20.368Z,17.10
2022-11-24T07:45:57.262Z,18.20
2022-11-24T07:48:30.686Z,18.00
2022-11-24T07:51:04.481Z,18.20
2022-11-24T07:53:37.868Z,21.00
2022-11-24T07:56:12.730Z,20.60
2022-11-24T07:58:49.775Z,20.90
2022-11-24T08:01:25.244Z,20.90
2022-11-24T08:03:58.167Z,23.40
2022-11-24T08:06:39.766Z,21.80
2022-11-24T08:09:18.047Z,20.80
2022-11-24T08:11:50.764Z,24.00
2022-11-24T08:14:27.858Z,22.80
2022-11-24T08:17:02.346Z,23.90
2022-11-24T08:19:36.319Z,19.70
2022-11-24T08:22:10.535Z,23.00
2022-11-24T08:24:47.944Z,22.30
2022-11-24T08:27:21.368Z,24.20
2022-11-24T08:29:53.743Z,24.40
2022-11-24T08:32:26.686Z,23.50
2022-11-24T08:35:13.451Z,25.00
2022-11-24T08:37:47.047Z,21.80
2022-11-24T08:40:22.917Z,23.90
2022-11-24T08:45:30.770Z,21.30
2022-11-24T08:48:03.821Z,29.50
2022-11-24T08:50:36.394Z,21.10
2022-11-24T08:53:08.810Z,21.80
2022-11-24T08:55:42.221Z,17.80
2022-11-24T08:58:17.197Z,19.60
2022-11-24T09:00:51.542Z,20.90
2022-11-24T09:03:24.783Z,19.50
2022-11-24T09:05:58.075Z,20.70
2022-11-24T09:08:32.699Z,22.50
2022-11-24T09:11:08.455Z,19.60
2022-11-24T09:13:42.478Z,20.20
2022-11-24T09:16:17.911Z,19.20
2022-11-24T09:18:55.997Z,20.60
2022-11-24T09:21:30.126Z,23.10
2022-11-24T09:24:05.343Z,20.90
2022-11-24T09:26:46.155Z,22.70
2022-11-24T09:29:21.284Z,21.00
2022-11-24T09:31:53.643Z,21.60
2022-11-24T09:34:26.095Z,19.30
2022-11-24T09:36:59.354Z,23.30
2022-11-24T09:39:32.202Z,22.60
2022-11-24T09:42:17.011Z,22.60
2022-11-24T09:45:15.342Z,21.90
2022-11-24T09:48:04.813Z,22.90
2022-11-24T09:50:40.276Z,23.40
2022-11-24T09:53:19.007Z,21.50
2022-11-24T09:55:55.603Z,17.90
2022-11-24T09:58:50.759Z,20.30
2022-11-24T10:01:26.085Z,23.80
2022-11-24T10:04:05.588Z,23.20
2022-11-24T10:06:48.957Z,23.10
2022-11-24T10:09:39.185Z,20.10
2022-11-24T10:12:24.423Z,21.90
2022-11-24T10:15:14.923Z,23.40
2022-11-24T10:17:56.115Z,22.80
2022-11-24T10:20:35.848Z,19.90
2022-11-24T10:23:25.621Z,19.70
2022-11-24T10:26:01.614Z,21.90
2022-11-24T10:31:24.103Z,20.50
2022-11-24T10:33:58.244Z,19.80
2022-11-24T10:36:45.001Z,18.80
2022-11-24T10:39:23.731Z,17.90
2022-11-24T10:42:02.753Z,21.90
2022-11-24T10:44:35.779Z,21.00
2022-11-24T10:47:19.925Z,19.10
2022-11-24T10:50:03.254Z,17.60
2022-11-24T10:52:44.051Z,17.60
2022-11-24T10:55:21.594Z,19.00
2022-11-24T10:57:54.598Z,20.30
2022-11-24T11:00:37.139Z,19.70
2022-11-24T11:03:21.730Z,19.70
2022-11-24T11:05:58.400Z,21.10
2022-11-24T11:08:32.253Z,21.60
2022-11-24T11:11:22.045Z,19.80
2022-11-24T11:14:03.989Z,25.80
2022-11-24T11:16:41.305Z,25.50
2022-11-24T11:19:50.680Z,27.50
2022-11-24T11:22:29.054Z,25.80
2022-11-24T11:25:24.982Z,25.40
2022-11-24T11:28:19.250Z,28.10
2022-11-24T11:31:22.134Z,27.00
2022-11-24T11:34:21.882Z,25.20
2022-11-24T11:36:57.393Z,27.50
2022-11-24T11:39:33.558Z,28.20
2022-11-24T11:42:45.229Z,27.30
2022-11-24T11:45:26.680Z,25.70
2022-11-24T11:48:12.011Z,26.70
2022-11-24T11:53:50.339Z,23.40
2022-11-24T11:56:30.460Z,24.70
2022-11-24T11:59:24.773Z,20.60
2022-11-24T12:02:24.687Z,21.80
2022-11-24T12:05:02.459Z,19.20
2022-11-24T12:07:50.268Z,19.30
2022-11-24T12:10:35.154Z,19.80
2022-11-24T12:13:43.622Z,17.10
2022-11-24T12:16:35.810Z,13.70
2022-11-24T12:19:29.212Z,14.90
2022-11-24T12:22:15.108Z,13.50
2022-11-24T12:24:57.520Z,16.70
2022-11-24T12:27:46.619Z,9.90
2022-11-24T12:30:22.490Z,9.20
2022-11-24T12:33:18.309Z,9.00
2022-11-24T12:36:03.780Z,7.80
2022-11-24T12:38:56.420Z,7.20
2022-11-24T12:41:42.775Z,6.10
2022-11-24T12:44:32.792Z,4.40
2022-11-24T12:47:17.980Z,4.00
2022-11-24T12:50:04.605Z,4.70
2022-11-24T12:52:41.347Z,5.40
2022-11-24T12:55:19.863Z,4.90
2022-11-24T12:58:10.592Z,4.00
2022-11-24T13:00:59.508Z,5.00
2022-11-24T13:03:46.763Z,4.40
2022-11-24T13:06:23.695Z,4.40
2022-11-24T13:08:58.183Z,5.50
2022-11-24T13:11:41.150Z,3.00
2022-11-24T13:14:20.266Z,2.70
2022-11-24T13:17:29.298Z,2.50
2022-11-24T13:19:53.859Z,4.00
2022-11-24T13:22:31.401Z,3.20
2022-11-24T13:25:22.556Z,2.70
2022-11-24T13:27:58.005Z,3.00
2022-11-24T13:31:09.843Z,4.80
2022-11-24T13:33:43.743Z,3.10
2022-11-24T13:36:33.969Z,3.30
2022-11-24T13:39:20.385Z,4.10
2022-11-24T13:42:09.783Z,4.40
2022-11-24T13:45:03.286Z,4.40
2022-11-24T13:47:41.926Z,8.60
2022-11-24T13:50:48.570Z,4.90
2022-11-24T13:53:34.358Z,5.50
2022-11-24T13:56:23.397Z,4.90
2022-11-24T13:58:58.261Z,4.80
2022-11-24T14:01:32.634Z,7.00
2022-11-24T14:04:31.907Z,6.60
2022-11-24T14:07:09.446Z,6.10
2022-11-24T14:09:47.355Z,7.10
2022-11-24T14:12:22.147Z,6.70
2022-11-24T14:14:56.862Z,7.20
2022-11-24T14:17:31.694Z,9.10
2022-11-24T14:20:25.437Z,7.60
2022-11-24T14:22:57.971Z,6.10
2022-11-24T14:25:33.390Z,7.40
2022-11-24T14:28:14.736Z,7.30
2022-11-24T14:30:47.179Z,6.00
2022-11-24T14:33:22.194Z,6.00
2022-11-24T14:35:55.423Z,7.20
2022-11-24T14:38:29.622Z,6.60
2022-11-24T14:41:25.608Z,6.00
2022-11-24T14:44:16.680Z,6.90
2022-11-24T14:46:49.764Z,7.10
2022-11-24T14:49:25.153Z,5.90
2022-11-24T14:52:03.668Z,5.40
2022-11-24T14:54:38.748Z,8.10
2022-11-24T14:57:27.273Z,5.90
2022-11-24T15:00:19.582Z,6.50
2022-11-24T15:02:54.833Z,4.90
2022-11-24T15:05:48.755Z,6.40
2022-11-24T15:08:23.364Z,7.00
2022-11-24T15:11:03.942Z,6.20
2022-11-24T15:13:40.363Z,6.50
2022-11-24T15:16:25.471Z,6.10
2022-11-24T15:19:03.457Z,5.50
2022-11-24T15:21:38.343Z,5.60
2022-11-24T15:24:18.958Z,5.40
2022-11-24T15:26:51.296Z,7.00
2022-11-24T15:29:24.038Z,8.70
2022-11-24T15:32:00.570Z,6.90
2022-11-24T15:34:33.296Z,7.50
2022-11-24T15:37:07.459Z,6.30
2022-11-24T15:39:39.821Z,5.90
2022-11-24T15:42:15.557Z,6.90
2022-11-24T15:44:49.602Z,6.70
2022-11-24T15:47:22.460Z,7.00
2022-11-24T15:49:54.964Z,6.60
2022-11-24T15:52:27.618Z,7.00
2022-11-24T15:55:00.456Z,7.50
2022-11-24T15:57:34.406Z,6.40
2022-11-24T16:00:08.982Z,7.10
2022-11-24T16:02:42.068Z,7.40
2022-11-24T16:05:16.935Z,7.20
2022-11-24T16:07:49.852Z,5.30
2022-11-24T16:10:28.200Z,9.20
2022-11-24T16:13:00.687Z,8.00
2022-11-24T16:15:33.372Z,7.30
2022-11-24T16:18:07.574Z,8.50
2022-11-24T16:20:40.906Z,11.40
2022-11-24T16:23:14.387Z,8.60
2022-11-24T16:25:47.056Z,11.30
2022-11-24T16:28:20.418Z,9.30
2022-11-24T16:30:54.057Z,12.50
2022-11-24T16:33:26.714Z,11.20
2022-11-24T16:35:59.813Z,9.30
2022-11-24T16:38:32.363Z,10.60
2022-11-24T16:41:04.918Z,10.30
2022-11-24T16:43:37.290Z,9.90
2022-11-24T16:46:21.176Z,10.70
2022-11-24T16:49:00.315Z,12.20
2022-11-24T16:51:35.201Z,11.00
2022-11-24T16:54:08.643Z,8.40
2022-11-24T16:56:44.111Z,9.80
2022-11-24T16:59:17.479Z,11.80
2022-11-24T17:01:52.186Z,12.10
2022-11-24T17:04:25.148Z,9.60
2022-11-24T17:06:59.388Z,9.30
2022-11-24T17:09:36.008Z,10.70
2022-11-24T17:12:14.270Z,13.20
2022-11-24T17:15:09.327Z,11.10
2022-11-24T17:17:55.207Z,12.40
2022-11-24T17:20:32.028Z,10.40
2022-11-24T17:23:04.759Z,10.20
2022-11-24T17:25:37.269Z,10.90
2022-11-24T17:28:11.053Z,11.10
2022-11-24T17:30:43.633Z,12.90
2022-11-24T17:33:15.974Z,12.70
2022-11-24T17:35:49.327Z,12.50
2022-11-24T17:38:22.338Z,10.90
2022-11-24T17:40:55.083Z,11.40
2022-11-24T17:43:28.774Z,12.50
2022-11-24T17:46:03.656Z,10.30
2022-11-24T17:48:38.582Z,13.20
2022-11-24T17:51:14.017Z,11.30
2022-11-24T17:53:49.486Z,14.30
2022-11-24T17:56:25.441Z,12.00
2022-11-24T17:59:01.197Z,11.70
2022-11-24T18:01:35.566Z,10.40
2022-11-24T18:04:08.251Z,12.50
2022-11-24T18:06:40.791Z,10.80
2022-11-24T18:09:13.523Z,11.70
2022-11-24T18:11:47.939Z,11.30
2022-11-24T18:14:20.492Z,9.50
2022-11-24T18:16:53.210Z,10.70
2022-11-24T18:19:26.434Z,12.70
2022-11-24T18:21:58.776Z,13.60
2022-11-24T18:24:31.081Z,9.90
2022-11-24T18:27:03.574Z,8.70
2022-11-24T18:29:36.112Z,7.80
2022-11-24T18:32:09.678Z,10.50
2022-11-24T18:34:43.363Z,9.40
2022-11-24T18:37:16.584Z,9.90
2022-11-24T18:39:48.931Z,10.10
2022-11-24T18:42:21.291Z,8.20
2022-11-24T18:44:54.479Z,10.00
2022-11-24T18:47:27.062Z,8.10
2022-11-24T18:50:00.534Z,9.40
2022-11-24T18:52:33.495Z,9.70
2022-11-24T18:55:06.780Z,9.30
2022-11-24T18:57:41.435Z,10.20
2022-11-24T19:00:18.935Z,9.60
2022-11-24T19:02:55.505Z,10.20
2022-11-24T19:05:30.104Z,9.30
2022-11-24T19:08:04.297Z,9.50
2022-11-24T19:10:42.040Z,8.40
2022-11-24T19:13:15.830Z,7.60
2022-11-24T19:15:52.170Z,8.80
2022-11-24T19:18:26.829Z,8.90
2022-11-24T19:21:02.682Z,8.30
2022-11-24T19:23:37.665Z,8.90
2022-11-24T19:26:11.965Z,9.20
2022-11-24T19:28:47.630Z,7.70
2022-11-24T19:31:20.971Z,10.10
2022-11-24T19:33:54.893Z,8.40
2022-11-24T19:36:28.106Z,8.70
2022-11-24T19:39:05.204Z,8.10
2022-11-24T19:41:40.748Z,9.80
2022-11-24T19:44:17.880Z,8.20
2022-11-24T19:46:50.343Z,10.50
2022-11-24T19:49:22.880Z,7.70
2022-11-24T19:51:56.753Z,8.60
2022-11-24T19:54:29.390Z,6.70
2022-11-24T19:57:01.722Z,9.80
2022-11-24T19:59:34.752Z,9.20
2022-11-24T20:02:10.465Z,10.10
2022-11-24T20:04:45.108Z,10.10
2022-11-24T20:07:19.154Z,9.20
2022-11-24T20:09:51.657Z,8.10
2022-11-24T20:12:24.441Z,9.20
2022-11-24T20:14:56.930Z,9.90
2022-11-24T20:17:33.017Z,6.90
2022-11-24T20:20:08.531Z,10.40
2022-11-24T20:22:42.581Z,8.40
2022-11-24T20:25:15.538Z,8.20
2022-11-24T20:27:48.024Z,8.30
2022-11-24T20:30:20.500Z,8.70
2022-11-24T20:32:53.095Z,9.00
2022-11-24T20:35:25.558Z,9.60
2022-11-24T20:37:59.941Z,9.10
2022-11-24T20:40:32.718Z,9.40
2022-11-24T20:43:05.502Z,7.60
2022-11-24T20:45:39.058Z,8.60
2022-11-24T20:48:12.414Z,6.60
2022-11-24T20:50:49.740Z,8.00
2022-11-24T20:53:24.596Z,7.10
2022-11-24T20:56:06.084Z,8.90
2022-11-24T20:58:41.657Z,6.90
2022-11-24T21:01:18.045Z,7.50
2022-11-24T21:03:56.401Z,7.70
2022-11-24T21:06:30.858Z,7.40
2022-11-24T21:09:04.114Z,8.20
2022-11-24T21:11:37.342Z,6.40
2022-11-24T21:14:10.455Z,8.40
2022-11-24T21:16:43.976Z,7.50
2022-11-24T21:19:18.889Z,7.50
2022-11-24T21:21:51.909Z,6.50
2022-11-24T21:24:24.692Z,7.40
2022-11-24T21:26:56.978Z,7.70
2022-11-24T21:29:29.691Z,7.10
2022-11-24T21:32:02.739Z,7.90
2022-11-24T21:34:35.402Z,7.40
2022-11-24T21:37:08.371Z,8.00
2022-11-24T21:39:44.690Z,7.00
2022-11-24T21:42:17.343Z,6.60
2022-11-24T21:44:50.362Z,7.80
2022-11-24T21:47:22.668Z,7.00
2022-11-24T21:49:55.550Z,7.60
2022-11-24T21:52:27.987Z,5.70
2022-11-24T21:55:01.141Z,7.70
2022-11-24T21:57:34.482Z,6.70
2022-11-24T22:00:12.054Z,6.30
2022-11-24T22:02:45.032Z,7.70
2022-11-24T22:05:18.008Z,8.10
2022-11-24T22:07:50.612Z,5.00
2022-11-24T22:10:23.509Z,6.30
2022-11-24T22:12:55.925Z,6.60
2022-11-24T22:15:28.596Z,6.90
2022-11-24T22:18:02.004Z,7.60
2022-11-24T22:20:34.770Z,6.90
2022-11-24T22:23:07.100Z,6.00
2022-11-24T22:25:39.593Z,6.60
2022-11-24T22:28:12.193Z,7.20
2022-11-24T22:30:44.675Z,6.50
2022-11-24T22:33:17.965Z,5.70
2022-11-24T22:35:59.722Z,6.60
2022-11-24T22:38:34.105Z,6.70
2022-11-24T22:41:08.522Z,6.30
2022-11-24T22:43:42.738Z,5.90
2022-11-24T22:46:17.921Z,6.40
2022-11-24T22:48:53.084Z,5.30
2022-11-24T22:51:27.950Z,5.80
2022-11-24T22:54:02.361Z,6.40
2022-11-24T22:56:35.738Z,6.30
2022-11-24T22:59:08.022Z,6.30
2022-11-24T23:01:40.448Z,5.70
2022-11-24T23:04:13.250Z,6.00
2022-11-24T23:06:45.903Z,6.30
2022-11-24T23:09:18.395Z,6.70
2022-11-24T23:11:51.835Z,6.40
2022-11-24T23:14:24.405Z,6.80
2022-11-24T23:17:00.898Z,5.70
2022-11-24T23:19:33.367Z,6.10
2022-11-24T23:22:05.852Z,4.90
2022-11-24T23:24:38.342Z,4.40
2022-11-24T23:27:10.719Z,5.30
2022-11-24T23:29:43.136Z,5.80
2022-11-24T23:32:15.619Z,5.30
2022-11-24T23:34:48.195Z,6.30
2022-11-24T23:37:26.454Z,6.70
2022-11-24T23:42:40.775Z,6.00
2022-11-24T23:45:15.989Z,4.70
2022-11-24T23:47:49.973Z,5.70
2022-11-24T23:50:24.104Z,6.10
2022-11-24T23:52:58.617Z,6.10
2022-11-24T23:55:32.020Z,7.20
2022-11-24T23:58:05.295Z,5.60
